Madison, Nebraska
Current Conditions -  °F | °C
As of 11:56 PM on Wednesday 26 Nov 2014 (Local Time) from KOFK Reporting Station
Broken Clouds Broken Clouds  
Wind Chill:   Ceiling: 6000
Heat Index: 14°   Visibility: 10mi
Dew Point:   Wind: 6mph
Humidity: 77%   Direction: 310°NW
Pressure: 30.47"   Gusts: NA
Location:  41.83°N, 97.46°W
Report Text: KOFK 270556Z AUTO 31005KT 10SM BKN060 M10/M13 A3047 RMK AO2 SLP346 T11001133 11061 21106 400331106 51020
Loading
Personal Weather Stations






























Interactive Weather Map New forecast layout! Learn more

10-Day Weather Forecast

Advertisements
Track Severe Weather on mobile